Language selection

Weather shortcuts

Atlantic - Newfoundland: Past 24 Hour Conditions

 

Banquereau - 44139

11:00 AM ADT 28 May 2024Buoy position: 44.27N 57.08W
Disclaimer

This table is a summary of hourly weather conditions for the past 24 hours.
Please note that these observations might not always be representative of weather conditions over their associated marine area.

Date / Time
(ADT)
Wind(knots) Wave height(m) Wave period(s) Pressure(kPa) Air tempC) Water tempC)
28 May 2024
11:00 SE 18 gusts 21 1.04 4.0 102.7 9 9
10:00 SE 17 gusts 19 0.96 3.6 102.7 9 9
9:00 SSE 16 gusts 18 0.86 3.6 102.7 9 9
8:00 SE 15 gusts 17 0.71 9.5 102.7 9 9
7:00 SE 20 gusts 24 0.68 10.0 102.7 9 9
6:00 SE 12 gusts 13 0.67 10.5 102.7 9 9
5:00 SE 11 gusts 12 0.59 8.0 102.7 8 9
4:00 SSE 10 gusts 11 0.61 7.1 102.8 8 9
3:00 SSE 9 gusts 11 0.53 9.1 102.8 8 9
2:00 SE 9 gusts 10 0.60 9.1 102.8 8 9
1:00 SE 8 gusts 10 0.52 11.1 102.8 8 9
0:00 SE 7 gusts 9 0.58 5.7 102.9 8 9
27 May 2024
23:00 SE 7 gusts 9 0.61 10.5 102.9 8 9
22:00 SE 6 gusts 8 0.58 6.5 102.8 8 9
21:00 ESE 8 gusts 9 0.60 8.7 102.8 8 9
20:00 E 7 gusts 8 0.59 6.3 102.8 8 10
19:00 ESE 48 gusts 73 0.62 6.3 102.8 8 10
18:00 ESE 31 gusts 38 0.62 6.1 102.7 8 10
17:00 ESE 34 gusts 49 0.62 7.1 102.8 8 10
16:00 E 24 gusts 29 0.60 6.9 102.7 8 10
15:00 ENE 25 gusts 29 0.58 7.7 102.7 8 10
14:00 ENE 28 gusts 36 0.57 7.1 102.7 8 10
13:00 NE 29 gusts 37 0.57 6.7 102.7 8 10
12:00 NNE 35 gusts 46 0.55 6.3 102.7 9 10
11:00 NNE 31 gusts 39 0.55 7.1 102.7 8 9

Zoom-in to make a selection

Map of Atlantic - Newfoundland marine weather areas Banquereau - 44139 East Chedabucto Bay – 44488 West Chedabucto Bay – 44489 Blanc-Sablon Airport Cap Whittle Chevery Natashquan Airport Heath Point Îles de la Madeleine Airport Miscou Island Eskasoni (First Nations) Grand Étang Ingonish Beach North Mountain St.Paul Island J.A. Douglas McCurdy Sydney Airport Charlottetown Airport East Point North Cape Argentia Berry Hill Bonavista Burgeo Cape Race Corner Brook Daniel's Harbour Englee Ferolle Point La Scie Port aux Basques Sagona Island St. Anthony Airport St. John's Int'l Airport St. Lawrence Stephenville Airport Twillingate Winterland Branch Hill Wreckhouse Grates Cove Pool's Island Marticot Island Long Pond Cartwright Airport Mary's Harbour
Legend:
buoy Buoy
land station Land Station

Atlantic - Newfoundland Area

Another Region

Features

New Predicting and Alerting Coastal Flooding Program

Find out about coastal flooding coverage, forecasts and warnings in your region

Date modified: